Greene, North Dakota
Current Conditions -  °F | °C
As of 12:23 PM on Sunday 25 Jan 2015 (Local Time) from KMIB Reporting Station
Overcast Overcast  
Wind Chill: 27°   Ceiling: 1300
Heat Index: 27°   Visibility: 10mi
Dew Point: 27°   Wind: 2mph
Humidity: 100%   Direction: 210°SSW
Pressure: 29.96"   Gusts: NA
Location:  48.822°N, 101.868°W
Report Text: KMIB 251823Z AUTO 21002KT 10SM SCT005 OVC013 M03/M03 A2996 RMK AO2 CIG 005V013 CIG 005 RWY11 $
Loading
Personal Weather Stations






























Interactive Weather Map New forecast layout! Learn more

10-Day Weather Forecast

Advertisements
Track Severe Weather on mobile